createdAt,value
2023-08-26T00:00:03.403Z,20.05
2023-08-26T00:01:02.310Z,20.05
2023-08-26T00:02:03.317Z,20.06
2023-08-26T00:03:02.251Z,20.05
2023-08-26T00:04:01.647Z,20.06
2023-08-26T00:05:02.130Z,20.06
2023-08-26T00:06:03.147Z,20.05
2023-08-26T00:07:01.991Z,20.05
2023-08-26T00:08:03.040Z,20.05
2023-08-26T00:09:03.572Z,20.04
2023-08-26T00:10:01.382Z,20.04
2023-08-26T00:11:03.494Z,20.05
2023-08-26T00:12:01.266Z,20.06
2023-08-26T00:13:01.770Z,20.09
2023-08-26T00:14:02.194Z,20.12
2023-08-26T00:15:03.955Z,20.16
2023-08-26T00:16:01.620Z,20.19
2023-08-26T00:17:02.093Z,20.2
2023-08-26T00:18:01.704Z,20.24
2023-08-26T00:19:01.993Z,20.25
2023-08-26T00:20:03.029Z,20.26
2023-08-26T00:21:01.915Z,20.27
2023-08-26T00:22:01.391Z,20.28
2023-08-26T00:23:02.047Z,20.3
2023-08-26T00:24:01.298Z,20.32
2023-08-26T00:25:01.820Z,20.33
2023-08-26T00:26:02.906Z,20.34
2023-08-26T00:27:01.733Z,20.37
2023-08-26T00:28:02.373Z,20.35
2023-08-26T00:29:01.707Z,20.37
2023-08-26T00:30:02.136Z,20.39
2023-08-26T00:31:03.265Z,20.4
2023-08-26T00:32:02.035Z,20.41
2023-08-26T00:33:01.606Z,20.43
2023-08-26T00:34:02.011Z,20.45
2023-08-26T00:35:04.706Z,20.47
2023-08-26T00:36:01.883Z,20.48
2023-08-26T00:37:01.390Z,20.51
2023-08-26T00:38:01.845Z,20.54
2023-08-26T00:39:02.873Z,20.57
2023-08-26T00:40:01.788Z,20.58
2023-08-26T00:41:03.821Z,20.6
2023-08-26T00:42:03.406Z,20.61
2023-08-26T00:43:02.151Z,20.62
2023-08-26T00:44:01.523Z,20.64
2023-08-26T00:45:02.014Z,20.66
2023-08-26T00:46:03.092Z,20.68
2023-08-26T00:47:03.635Z,20.7
2023-08-26T00:48:03.090Z,20.72
2023-08-26T00:49:03.494Z,20.73
2023-08-26T00:50:02.921Z,20.74
2023-08-26T00:51:01.773Z,20.75
2023-08-26T00:52:02.221Z,20.75
2023-08-26T00:53:01.726Z,20.77
2023-08-26T00:54:03.788Z,20.77
2023-08-26T00:55:02.292Z,20.78
2023-08-26T00:56:03.698Z,20.78
2023-08-26T00:57:03.163Z,20.77
2023-08-26T00:58:01.998Z,20.78
2023-08-26T00:59:01.431Z,20.78
2023-08-26T01:00:03.593Z,20.79
2023-08-26T01:01:01.406Z,20.8
2023-08-26T01:02:03.469Z,20.83
2023-08-26T01:03:01.393Z,20.85
2023-08-26T01:04:01.809Z,20.86
2023-08-26T01:05:03.878Z,20.87
2023-08-26T01:06:03.299Z,20.87
2023-08-26T01:07:02.112Z,20.88
2023-08-26T01:08:01.592Z,20.88
2023-08-26T01:09:03.702Z,20.87
2023-08-26T01:10:03.186Z,20.88
2023-08-26T01:11:01.953Z,20.87
2023-08-26T01:12:01.400Z,20.86
2023-08-26T01:13:03.728Z,20.84
2023-08-26T01:14:01.335Z,20.81
2023-08-26T01:15:03.497Z,20.79
2023-08-26T01:17:03.377Z,20.76
2023-08-26T01:18:02.278Z,20.74
2023-08-26T01:19:03.306Z,20.71
2023-08-26T01:20:02.156Z,20.69
2023-08-26T01:21:01.592Z,20.66
2023-08-26T01:22:03.636Z,20.64
2023-08-26T01:23:03.148Z,20.65
2023-08-26T01:24:03.575Z,20.65
2023-08-26T01:25:01.412Z,20.65
2023-08-26T01:26:01.935Z,20.65
2023-08-26T01:27:01.363Z,20.65
2023-08-26T01:28:03.485Z,20.65
2023-08-26T01:29:02.940Z,20.64
2023-08-26T01:30:01.730Z,20.63
2023-08-26T01:31:02.233Z,20.62
2023-08-26T01:32:01.647Z,20.61
2023-08-26T01:33:02.161Z,20.61
2023-08-26T01:34:01.556Z,20.6
2023-08-26T01:35:02.058Z,20.59
2023-08-26T01:36:02.248Z,20.58
2023-08-26T01:37:03.620Z,20.57
2023-08-26T01:38:03.499Z,20.55
2023-08-26T01:39:01.884Z,20.53
2023-08-26T01:40:01.349Z,20.5
2023-08-26T01:41:01.808Z,20.49
2023-08-26T01:42:01.269Z,20.47
2023-08-26T01:43:01.725Z,20.46
2023-08-26T01:44:03.820Z,20.45
2023-08-26T01:45:01.666Z,20.45
2023-08-26T01:46:02.131Z,20.46
2023-08-26T01:47:03.218Z,20.46
2023-08-26T01:48:02.025Z,20.47
2023-08-26T01:49:03.129Z,20.49
2023-08-26T01:50:01.948Z,20.51
2023-08-26T01:51:01.374Z,20.53
2023-08-26T01:52:01.847Z,20.55
2023-08-26T01:53:01.334Z,20.57
2023-08-26T01:54:01.796Z,20.58
2023-08-26T01:55:02.244Z,20.59
2023-08-26T01:56:01.765Z,20.6
2023-08-26T01:57:03.804Z,20.6
2023-08-26T01:58:01.618Z,20.61
2023-08-26T01:59:02.060Z,20.65
2023-08-26T02:00:01.511Z,20.69
2023-08-26T02:01:03.606Z,20.72
2023-08-26T02:02:03.089Z,20.77
2023-08-26T02:03:03.579Z,20.83
2023-08-26T02:04:02.937Z,20.89
2023-08-26T02:05:03.373Z,20.93
2023-08-26T02:06:03.848Z,20.98
2023-08-26T02:07:01.665Z,21.02
2023-08-26T02:08:02.143Z,21.08
2023-08-26T02:09:01.621Z,21.1
2023-08-26T02:10:02.083Z,21.13
2023-08-26T02:11:01.614Z,21.16
2023-08-26T02:12:03.715Z,21.18
2023-08-26T02:13:01.439Z,21.21
2023-08-26T02:14:01.888Z,21.28
2023-08-26T02:15:02.005Z,21.35
2023-08-26T02:16:01.960Z,21.4
2023-08-26T02:17:02.984Z,21.44
2023-08-26T02:18:03.448Z,21.48
2023-08-26T02:19:03.802Z,21.51
2023-08-26T02:20:01.666Z,21.54
2023-08-26T02:21:03.808Z,21.6
2023-08-26T02:22:03.203Z,21.63
2023-08-26T02:23:02.086Z,21.64
2023-08-26T02:24:01.587Z,21.63
2023-08-26T02:25:02.027Z,21.6
2023-08-26T02:26:01.456Z,21.57
2023-08-26T02:27:02.003Z,21.52
2023-08-26T02:28:01.398Z,21.53
2023-08-26T02:29:03.505Z,21.57
2023-08-26T02:30:01.321Z,21.58
2023-08-26T02:31:03.412Z,21.57
2023-08-26T02:32:03.972Z,21.55
2023-08-26T02:33:03.344Z,21.55
2023-08-26T02:34:02.153Z,21.54
2023-08-26T02:35:01.642Z,21.52
2023-08-26T02:36:02.100Z,21.48
2023-08-26T02:37:01.580Z,21.46
2023-08-26T02:38:02.024Z,21.43
2023-08-26T02:39:03.126Z,21.39
2023-08-26T02:40:01.962Z,21.35
2023-08-26T02:41:01.389Z,21.33
2023-08-26T02:42:03.500Z,21.31
2023-08-26T02:43:02.970Z,21.28
2023-08-26T02:44:01.742Z,21.23
2023-08-26T02:45:02.246Z,21.2
2023-08-26T02:46:01.762Z,21.17
2023-08-26T02:47:03.791Z,21.14
2023-08-26T02:48:01.673Z,21.1
2023-08-26T02:49:03.693Z,21.05
2023-08-26T02:50:03.230Z,21.01
2023-08-26T02:51:01.995Z,20.95
2023-08-26T02:52:03.098Z,20.92
2023-08-26T02:53:03.594Z,20.89
2023-08-26T02:54:01.340Z,20.86
2023-08-26T02:55:03.432Z,20.83
2023-08-26T02:56:01.404Z,20.8
2023-08-26T02:57:01.773Z,20.77
2023-08-26T02:58:03.800Z,20.75
2023-08-26T02:59:01.643Z,20.72
2023-08-26T03:00:02.100Z,20.69
2023-08-26T03:01:01.615Z,20.64
2023-08-26T03:02:03.649Z,20.61
2023-08-26T03:03:01.638Z,20.58
2023-08-26T03:04:03.605Z,20.56
2023-08-26T03:05:01.426Z,20.55
2023-08-26T03:06:01.848Z,20.53
2023-08-26T03:07:02.968Z,20.51
2023-08-26T03:08:01.794Z,20.5
2023-08-26T03:09:02.260Z,20.49
2023-08-26T03:10:03.382Z,20.48
2023-08-26T03:11:03.819Z,20.48
2023-08-26T03:12:01.603Z,20.49
2023-08-26T03:13:02.077Z,20.49
2023-08-26T03:14:03.144Z,20.48
2023-08-26T03:15:02.002Z,20.48
2023-08-26T03:16:01.529Z,20.48
2023-08-26T03:17:03.619Z,20.48
2023-08-26T03:18:01.590Z,20.47
2023-08-26T03:19:03.474Z,20.46
2023-08-26T03:20:01.280Z,20.45
2023-08-26T03:21:01.755Z,20.43
2023-08-26T03:22:02.242Z,20.42
2023-08-26T03:23:01.735Z,20.41
2023-08-26T03:24:02.125Z,20.4
2023-08-26T03:25:01.601Z,20.37
2023-08-26T03:26:02.069Z,20.34
2023-08-26T03:27:01.527Z,20.33
2023-08-26T03:28:02.011Z,20.32
2023-08-26T03:29:03.103Z,20.31
2023-08-26T03:30:01.871Z,20.3
2023-08-26T03:31:03.032Z,20.28
2023-08-26T03:32:01.777Z,20.26
2023-08-26T03:33:03.928Z,20.24
2023-08-26T03:34:03.366Z,20.22
2023-08-26T03:35:03.802Z,20.21
2023-08-26T03:36:03.713Z,20.2
2023-08-26T03:37:03.142Z,20.19
2023-08-26T03:38:01.967Z,20.18
2023-08-26T03:39:03.040Z,20.17
2023-08-26T03:40:03.469Z,20.17
2023-08-26T03:41:01.281Z,20.16
2023-08-26T03:42:01.742Z,20.15
2023-08-26T03:43:02.233Z,20.14
2023-08-26T03:44:01.643Z,20.13
2023-08-26T03:45:02.166Z,20.11
2023-08-26T03:46:01.820Z,20.11
2023-08-26T03:47:02.051Z,20.1
2023-08-26T03:48:01.594Z,20.1
2023-08-26T03:49:01.955Z,20.1
2023-08-26T03:50:03.089Z,20.11
2023-08-26T03:51:01.894Z,20.11
2023-08-26T03:52:01.335Z,20.12
2023-08-26T03:53:01.805Z,20.11
2023-08-26T03:54:02.248Z,20.11
2023-08-26T03:55:01.691Z,20.1
2023-08-26T03:56:02.156Z,20.07
2023-08-26T03:57:01.628Z,20.06
2023-08-26T03:58:02.104Z,20.04
2023-08-26T03:59:01.583Z,20.03
2023-08-26T04:00:02.039Z,20.02
2023-08-26T04:01:03.201Z,20.02
2023-08-26T04:02:01.909Z,20.02
2023-08-26T04:03:03.062Z,20.01
2023-08-26T04:04:01.835Z,20
2023-08-26T04:05:01.285Z,20
2023-08-26T04:06:01.728Z,20
2023-08-26T04:07:03.816Z,20
2023-08-26T04:08:01.722Z,20
2023-08-26T04:09:03.746Z,20
2023-08-26T04:10:01.597Z,20.01
2023-08-26T04:11:03.751Z,20
2023-08-26T04:12:01.446Z,20.01
2023-08-26T04:13:03.539Z,20.02
2023-08-26T04:14:01.348Z,20.02
2023-08-26T04:15:03.466Z,20.02
2023-08-26T04:16:02.282Z,20.01
2023-08-26T04:17:01.715Z,20
2023-08-26T04:18:02.230Z,19.98
2023-08-26T04:19:03.280Z,19.96
2023-08-26T04:20:03.750Z,19.96
2023-08-26T04:21:01.574Z,19.92
2023-08-26T04:22:02.028Z,19.92
2023-08-26T04:23:01.484Z,19.92
2023-08-26T04:24:03.569Z,19.92
2023-08-26T04:25:01.417Z,19.92
2023-08-26T04:26:01.901Z,19.92
2023-08-26T04:27:01.389Z,19.92
2023-08-26T04:28:01.846Z,19.91
2023-08-26T04:29:02.948Z,19.91
2023-08-26T04:30:01.900Z,19.91
2023-08-26T04:31:01.411Z,19.91
2023-08-26T04:32:03.435Z,19.91
2023-08-26T04:33:02.344Z,19.9
2023-08-26T04:34:01.648Z,19.88
2023-08-26T04:35:02.164Z,19.86
2023-08-26T04:36:01.589Z,19.85
2023-08-26T04:37:02.087Z,19.85
2023-08-26T04:38:03.234Z,19.85
2023-08-26T04:39:02.031Z,19.84
2023-08-26T04:40:01.449Z,19.83
2023-08-26T04:41:03.604Z,19.83
2023-08-26T04:42:03.012Z,19.81
2023-08-26T04:43:03.528Z,19.81
2023-08-26T04:44:02.886Z,19.79
2023-08-26T04:45:01.747Z,19.77
2023-08-26T04:46:02.269Z,19.76
2023-08-26T04:47:01.738Z,19.75
2023-08-26T04:48:02.164Z,19.73
2023-08-26T04:49:03.242Z,19.72
2023-08-26T04:50:03.692Z,19.71
2023-08-26T04:51:01.501Z,19.69
2023-08-26T04:52:01.992Z,19.66
2023-08-26T04:53:03.045Z,19.63
2023-08-26T04:54:03.531Z,19.61
2023-08-26T04:55:02.941Z,19.58
2023-08-26T04:56:01.900Z,19.56
2023-08-26T04:57:03.835Z,19.55
2023-08-26T04:58:03.271Z,19.54
2023-08-26T04:59:02.100Z,19.54
2023-08-26T05:00:03.213Z,19.52
2023-08-26T05:01:02.092Z,19.51
2023-08-26T05:02:01.334Z,19.48
2023-08-26T05:03:01.944Z,19.48
2023-08-26T05:04:02.964Z,19.46
2023-08-26T05:05:03.532Z,19.45
2023-08-26T05:06:02.895Z,19.44
2023-08-26T05:07:01.909Z,19.43
2023-08-26T05:08:01.263Z,19.42
2023-08-26T05:09:03.410Z,19.41
2023-08-26T05:10:01.269Z,19.41
2023-08-26T05:11:03.438Z,19.41
2023-08-26T05:12:01.257Z,19.4
2023-08-26T05:13:03.478Z,19.4
2023-08-26T05:14:01.340Z,19.4
2023-08-26T05:15:02.006Z,19.4
2023-08-26T05:16:03.108Z,19.4
2023-08-26T05:17:02.012Z,19.4
2023-08-26T05:18:01.497Z,19.4
2023-08-26T05:19:01.974Z,19.39
2023-08-26T05:20:01.454Z,19.39
2023-08-26T05:21:01.972Z,19.38
2023-08-26T05:22:01.481Z,19.38
2023-08-26T05:23:02.013Z,19.38
2023-08-26T05:24:03.017Z,19.39
2023-08-26T05:25:02.108Z,19.39
2023-08-26T05:26:01.555Z,19.39
2023-08-26T05:27:02.102Z,19.4
2023-08-26T05:28:01.598Z,19.4
2023-08-26T05:29:02.045Z,19.41
2023-08-26T05:30:01.573Z,19.42
2023-08-26T05:31:03.829Z,19.42
2023-08-26T05:32:01.594Z,19.43
2023-08-26T05:33:03.895Z,19.44
2023-08-26T05:34:01.662Z,19.44
2023-08-26T05:35:02.114Z,19.44
2023-08-26T05:36:01.564Z,19.44
2023-08-26T05:37:03.675Z,19.44
2023-08-26T05:38:01.467Z,19.45
2023-08-26T05:39:02.047Z,19.45
2023-08-26T05:40:01.382Z,19.45
2023-08-26T05:41:01.988Z,19.47
2023-08-26T05:42:02.980Z,19.51
2023-08-26T05:43:01.810Z,19.52
2023-08-26T05:44:01.256Z,19.52
2023-08-26T05:45:03.353Z,19.53
2023-08-26T05:46:02.226Z,19.54
2023-08-26T05:47:01.626Z,19.55
2023-08-26T05:48:02.447Z,19.56
2023-08-26T05:49:03.224Z,19.57
2023-08-26T05:50:03.635Z,19.57
2023-08-26T05:51:01.490Z,19.6
2023-08-26T05:52:03.574Z,19.62
2023-08-26T05:53:04.302Z,19.65
2023-08-26T05:54:01.816Z,19.66
2023-08-26T05:55:01.311Z,19.66
2023-08-26T05:56:01.801Z,19.66
2023-08-26T05:57:02.277Z,19.68
2023-08-26T05:58:01.752Z,19.68
2023-08-26T05:59:03.831Z,19.7
2023-08-26T06:00:01.638Z,19.72
2023-08-26T06:01:03.743Z,19.75
2023-08-26T06:02:01.583Z,19.76
2023-08-26T06:03:03.714Z,19.79
2023-08-26T06:04:03.256Z,19.81
2023-08-26T06:05:03.570Z,19.81
2023-08-26T06:06:03.008Z,19.83
2023-08-26T06:07:03.447Z,19.82
2023-08-26T06:08:01.273Z,19.83
2023-08-26T06:09:01.733Z,19.85
2023-08-26T06:10:03.798Z,19.89
2023-08-26T06:11:03.302Z,19.91
2023-08-26T06:12:02.061Z,19.91
2023-08-26T06:13:01.544Z,19.92
2023-08-26T06:14:02.034Z,19.92
2023-08-26T06:15:03.870Z,19.95
2023-08-26T06:16:01.496Z,19.96
2023-08-26T06:17:02.026Z,19.98
2023-08-26T06:18:01.490Z,20.01
2023-08-26T06:19:03.545Z,20.03
2023-08-26T06:20:03.032Z,20.04
2023-08-26T06:21:03.442Z,20.06
2023-08-26T06:22:02.967Z,20.09
2023-08-26T06:23:03.373Z,20.11
2023-08-26T06:24:03.814Z,20.11
2023-08-26T06:25:01.612Z,20.1
2023-08-26T06:26:02.163Z,20.13
2023-08-26T06:27:01.507Z,20.14
2023-08-26T06:28:02.121Z,20.15
2023-08-26T06:29:01.451Z,20.14
2023-08-26T06:30:03.565Z,20.13
2023-08-26T06:31:01.390Z,20.13
2023-08-26T06:32:01.916Z,20.13
2023-08-26T06:33:01.356Z,20.12
2023-08-26T06:34:01.822Z,20.15
2023-08-26T06:35:01.293Z,20.18
2023-08-26T06:36:01.735Z,20.2
2023-08-26T06:37:03.843Z,20.22
2023-08-26T06:38:03.344Z,20.24
2023-08-26T06:39:03.802Z,20.25
2023-08-26T06:40:01.587Z,20.25
2023-08-26T06:41:03.720Z,20.27
2023-08-26T06:42:01.488Z,20.29
2023-08-26T06:43:01.973Z,20.3
2023-08-26T06:44:01.439Z,20.32
2023-08-26T06:45:03.594Z,20.33
2023-08-26T06:46:01.354Z,20.34
2023-08-26T06:47:01.816Z,20.35
2023-08-26T06:48:01.290Z,20.39
2023-08-26T06:49:03.355Z,20.4
2023-08-26T06:50:02.177Z,20.42
2023-08-26T06:51:01.653Z,20.42
2023-08-26T06:52:02.067Z,20.42
2023-08-26T06:53:01.562Z,20.42
2023-08-26T06:54:03.637Z,20.44
2023-08-26T06:55:01.458Z,20.44
2023-08-26T06:56:03.552Z,20.47
2023-08-26T06:57:01.362Z,20.47
2023-08-26T06:58:03.487Z,20.48
2023-08-26T06:59:01.284Z,20.5
2023-08-26T07:00:03.370Z,20.5
2023-08-26T07:01:03.911Z,20.5
2023-08-26T07:02:01.634Z,20.5
2023-08-26T07:03:02.168Z,20.51
2023-08-26T07:04:01.625Z,20.54
2023-08-26T07:05:03.670Z,20.56
2023-08-26T07:06:01.503Z,20.59
2023-08-26T07:07:01.982Z,20.61
2023-08-26T07:08:01.382Z,20.63
2023-08-26T07:09:01.907Z,20.65
2023-08-26T07:10:02.977Z,20.68
2023-08-26T07:11:03.453Z,20.7
2023-08-26T07:12:03.318Z,20.73
2023-08-26T07:13:01.747Z,20.77
2023-08-26T07:14:02.170Z,20.8
2023-08-26T07:15:03.250Z,20.83
2023-08-26T07:16:02.092Z,20.87
2023-08-26T07:17:01.551Z,20.9
2023-08-26T07:18:03.656Z,20.93
2023-08-26T07:19:01.486Z,20.93
2023-08-26T07:20:01.944Z,20.95
2023-08-26T07:21:01.377Z,20.99
2023-08-26T07:22:01.964Z,21.01
2023-08-26T07:23:01.327Z,21.04
2023-08-26T07:24:01.786Z,21.06
2023-08-26T07:25:01.282Z,21.08
2023-08-26T07:26:03.384Z,21.09
2023-08-26T07:27:02.301Z,21.1
2023-08-26T07:28:01.673Z,21.14
2023-08-26T07:29:02.148Z,21.16
2023-08-26T07:30:01.629Z,21.19
2023-08-26T07:31:02.198Z,21.21
2023-08-26T07:32:01.505Z,21.24
2023-08-26T07:33:03.710Z,21.28
2023-08-26T07:34:01.430Z,21.3
2023-08-26T07:35:01.897Z,21.33
2023-08-26T07:36:02.003Z,21.33
2023-08-26T07:37:01.884Z,21.35
2023-08-26T07:38:01.328Z,21.35
2023-08-26T07:39:03.452Z,21.35
2023-08-26T07:40:02.266Z,21.36
2023-08-26T07:41:01.726Z,21.36
2023-08-26T07:42:02.188Z,21.37
2023-08-26T07:43:01.670Z,21.37
2023-08-26T07:44:02.106Z,21.37
2023-08-26T07:45:03.249Z,21.37
2023-08-26T07:47:01.579Z,21.42
2023-08-26T07:49:01.477Z,21.48
2023-08-26T07:50:01.875Z,21.54
2023-08-26T07:51:01.384Z,21.59
2023-08-26T07:52:01.839Z,21.63
2023-08-26T07:53:01.380Z,21.66
2023-08-26T07:54:01.798Z,21.7
2023-08-26T07:55:02.285Z,21.75
2023-08-26T07:56:01.701Z,21.77
2023-08-26T07:57:03.833Z,21.84
2023-08-26T07:58:01.641Z,21.9
2023-08-26T07:59:02.119Z,21.94
2023-08-26T08:00:01.623Z,21.98
2023-08-26T08:01:03.802Z,22.03
2023-08-26T08:02:01.512Z,22.07
2023-08-26T08:03:02.193Z,22.11
2023-08-26T08:04:03.144Z,22.13
2023-08-26T08:05:03.512Z,22.14
2023-08-26T08:06:01.354Z,22.14
2023-08-26T08:07:03.426Z,22.14
2023-08-26T08:08:02.252Z,22.14
2023-08-26T08:09:03.347Z,22.16
2023-08-26T08:10:02.153Z,22.17
2023-08-26T08:11:03.225Z,22.19
2023-08-26T08:12:03.678Z,22.22
2023-08-26T08:13:01.508Z,22.28
2023-08-26T08:14:01.942Z,22.35
2023-08-26T08:15:01.438Z,22.4
2023-08-26T08:16:01.947Z,22.47
2023-08-26T08:17:01.974Z,22.47
2023-08-26T08:18:03.105Z,22.51
2023-08-26T08:19:02.087Z,22.5
2023-08-26T08:20:01.327Z,22.53
2023-08-26T08:21:01.818Z,22.53
2023-08-26T08:22:02.223Z,22.56
2023-08-26T08:23:01.713Z,22.53
2023-08-26T08:24:02.144Z,22.51
2023-08-26T08:25:01.684Z,22.49
2023-08-26T08:26:02.116Z,22.47
2023-08-26T08:27:01.564Z,22.44
2023-08-26T08:28:02.050Z,22.44
2023-08-26T08:29:01.499Z,22.43
2023-08-26T08:30:02.072Z,22.43
2023-08-26T08:31:03.116Z,22.44
2023-08-26T08:32:01.906Z,22.43
2023-08-26T08:33:01.697Z,22.43
2023-08-26T08:34:01.857Z,22.41
2023-08-26T08:35:01.307Z,22.41
2023-08-26T08:36:01.832Z,22.42
2023-08-26T08:37:02.297Z,22.42
2023-08-26T08:38:01.712Z,22.52
2023-08-26T08:39:02.230Z,22.58
2023-08-26T08:40:01.659Z,22.62
2023-08-26T08:41:03.780Z,22.66
2023-08-26T08:42:03.193Z,22.68
2023-08-26T08:43:03.727Z,22.7
2023-08-26T08:44:01.487Z,22.73
2023-08-26T08:45:03.588Z,22.78
2023-08-26T08:46:03.049Z,22.81
2023-08-26T08:47:03.579Z,22.82
2023-08-26T08:48:01.400Z,22.81
2023-08-26T08:49:01.850Z,22.83
2023-08-26T08:50:02.872Z,22.84
2023-08-26T08:51:01.719Z,22.84
2023-08-26T08:52:03.792Z,22.82
2023-08-26T08:53:01.652Z,22.81
2023-08-26T08:54:02.126Z,22.8
2023-08-26T08:55:01.569Z,22.78
2023-08-26T08:56:02.064Z,22.78
2023-08-26T08:57:03.869Z,22.82
2023-08-26T08:58:01.428Z,22.84
2023-08-26T08:59:01.974Z,22.85
2023-08-26T09:00:03.019Z,22.84
2023-08-26T09:01:01.859Z,22.83
2023-08-26T09:02:01.330Z,22.8
2023-08-26T09:03:03.411Z,22.73
2023-08-26T09:04:03.874Z,22.65
2023-08-26T09:05:03.316Z,22.56
2023-08-26T09:06:03.796Z,22.5
2023-08-26T09:07:01.603Z,22.4
2023-08-26T09:08:02.047Z,22.33
2023-08-26T09:09:01.510Z,22.28
2023-08-26T09:10:03.058Z,22.26
2023-08-26T09:11:01.403Z,22.27
2023-08-26T09:12:01.919Z,22.25
2023-08-26T09:13:02.984Z,22.22
2023-08-26T09:14:03.498Z,22.2
2023-08-26T09:15:02.956Z,22.16
2023-08-26T09:16:01.731Z,22.07
2023-08-26T09:17:02.180Z,21.99
2023-08-26T09:18:01.965Z,21.91
2023-08-26T09:19:02.485Z,21.83
2023-08-26T09:20:01.596Z,21.8
2023-08-26T09:21:02.015Z,21.79
2023-08-26T09:22:01.457Z,21.74
2023-08-26T09:23:01.972Z,21.75
2023-08-26T09:24:01.454Z,21.77
2023-08-26T09:25:01.949Z,21.81
2023-08-26T09:26:01.301Z,21.8
2023-08-26T09:27:01.802Z,21.8
2023-08-26T09:28:02.241Z,21.81
2023-08-26T09:29:03.333Z,21.83
2023-08-26T09:30:03.827Z,21.92
2023-08-26T09:31:03.302Z,21.96
2023-08-26T09:32:02.048Z,21.99
2023-08-26T09:33:03.171Z,22.09
2023-08-26T09:34:03.553Z,22.13
2023-08-26T09:35:03.174Z,22.23
2023-08-26T09:37:01.280Z,22.38
2023-08-26T09:38:01.774Z,22.41
2023-08-26T09:39:03.841Z,22.46
2023-08-26T09:40:01.687Z,22.52
2023-08-26T09:41:03.791Z,22.58
2023-08-26T09:42:01.606Z,22.64
2023-08-26T09:43:03.674Z,22.65
2023-08-26T09:44:03.160Z,22.69
2023-08-26T09:45:01.955Z,22.76
2023-08-26T09:46:01.428Z,22.83
2023-08-26T09:47:01.947Z,22.9
2023-08-26T09:48:01.625Z,22.95
2023-08-26T09:49:01.784Z,22.97
2023-08-26T09:50:02.240Z,22.99
2023-08-26T09:51:03.350Z,22.99
2023-08-26T09:52:02.194Z,23.01
2023-08-26T09:53:01.687Z,23.03
2023-08-26T09:54:02.082Z,23.07
2023-08-26T09:55:03.205Z,23.11
2023-08-26T09:56:02.095Z,23.18
2023-08-26T09:57:03.182Z,23.3
2023-08-26T09:58:01.946Z,23.38
2023-08-26T09:59:01.403Z,23.45
2023-08-26T10:00:01.891Z,23.55
2023-08-26T10:01:02.997Z,23.59
2023-08-26T10:02:01.887Z,23.62
2023-08-26T10:03:01.395Z,23.68
2023-08-26T10:04:01.805Z,23.81
2023-08-26T10:05:02.309Z,23.89
2023-08-26T10:06:01.706Z,23.98
2023-08-26T10:07:03.840Z,24.04
2023-08-26T10:08:01.664Z,24.1
2023-08-26T10:09:03.779Z,24.09
2023-08-26T10:10:03.217Z,24.06
2023-08-26T10:11:03.668Z,24.05
2023-08-26T10:12:01.464Z,24.04
2023-08-26T10:13:01.957Z,23.99
2023-08-26T10:14:01.413Z,23.95
2023-08-26T10:15:01.902Z,23.96
2023-08-26T10:16:03.917Z,23.96
2023-08-26T10:17:03.627Z,23.85
2023-08-26T10:18:01.407Z,23.77
2023-08-26T10:19:01.847Z,23.72
2023-08-26T10:20:01.360Z,23.68
2023-08-26T10:21:01.800Z,23.66
2023-08-26T10:22:02.934Z,23.66
2023-08-26T10:23:01.811Z,23.67
2023-08-26T10:24:02.198Z,23.72
2023-08-26T10:25:01.688Z,23.76
2023-08-26T10:26:02.123Z,23.77
2023-08-26T10:27:03.254Z,23.81
2023-08-26T10:28:03.707Z,23.83
2023-08-26T10:29:01.500Z,23.76
2023-08-26T10:30:02.013Z,23.75
2023-08-26T10:31:01.465Z,23.74
2023-08-26T10:32:03.617Z,23.72
2023-08-26T10:33:01.408Z,23.67
2023-08-26T10:34:03.484Z,23.59
2023-08-26T10:35:01.328Z,23.52
2023-08-26T10:36:01.858Z,23.55
2023-08-26T10:37:01.258Z,23.53
2023-08-26T10:38:01.765Z,23.51
2023-08-26T10:39:02.190Z,23.51
2023-08-26T10:40:01.678Z,23.53
2023-08-26T10:41:02.184Z,23.51
2023-08-26T10:42:03.238Z,23.55
2023-08-26T10:43:02.093Z,23.65
2023-08-26T10:44:03.256Z,23.66
2023-08-26T10:45:03.753Z,23.66
2023-08-26T10:46:01.600Z,23.67
2023-08-26T10:47:02.045Z,23.75
2023-08-26T10:48:01.727Z,23.82
2023-08-26T10:49:03.555Z,23.82
2023-08-26T10:50:03.109Z,23.81
2023-08-26T10:51:01.909Z,23.79
2023-08-26T10:52:01.360Z,23.77
2023-08-26T10:53:01.841Z,23.8
2023-08-26T10:54:01.293Z,23.82
2023-08-26T10:55:03.401Z,23.82
2023-08-26T10:56:02.268Z,23.82
2023-08-26T10:57:02.354Z,23.81
2023-08-26T10:58:02.506Z,23.81
2023-08-26T10:59:01.627Z,23.77
2023-08-26T11:00:03.706Z,23.74
2023-08-26T11:01:01.583Z,23.72
2023-08-26T11:02:01.972Z,23.71
2023-08-26T11:03:03.212Z,23.67
2023-08-26T11:04:01.882Z,23.67
2023-08-26T11:05:03.057Z,23.67
2023-08-26T11:06:03.529Z,23.66
2023-08-26T11:07:02.943Z,23.61
2023-08-26T11:08:01.777Z,23.59
2023-08-26T11:09:03.906Z,23.59
2023-08-26T11:10:01.717Z,23.59
2023-08-26T11:11:03.808Z,23.61
2023-08-26T11:12:03.268Z,23.64
2023-08-26T11:13:02.107Z,23.67
2023-08-26T11:14:03.189Z,23.67
2023-08-26T11:15:03.676Z,23.67
2023-08-26T11:16:03.114Z,23.67
2023-08-26T11:17:03.509Z,23.67
2023-08-26T11:18:01.545Z,23.68
2023-08-26T11:19:03.458Z,23.67
2023-08-26T11:20:02.260Z,23.62
2023-08-26T11:21:03.387Z,23.58
2023-08-26T11:22:03.766Z,23.55
2023-08-26T11:23:03.259Z,23.54
2023-08-26T11:24:02.050Z,23.52
2023-08-26T11:25:01.546Z,23.5
2023-08-26T11:26:03.663Z,23.47
2023-08-26T11:27:03.137Z,23.51
2023-08-26T11:28:03.530Z,23.55
2023-08-26T11:29:01.367Z,23.55
2023-08-26T11:30:01.828Z,23.55
2023-08-26T11:31:02.947Z,23.56
2023-08-26T11:32:01.757Z,23.61
2023-08-26T11:33:03.889Z,23.64
2023-08-26T11:34:01.599Z,23.67
2023-08-26T11:35:03.737Z,23.72
2023-08-26T11:36:09.420Z,23.75
2023-08-26T11:37:02.018Z,23.82
2023-08-26T11:38:03.155Z,23.86
2023-08-26T11:39:03.593Z,23.89
2023-08-26T11:40:01.330Z,23.91
2023-08-26T11:41:03.439Z,23.91
2023-08-26T11:42:03.851Z,23.94
2023-08-26T11:43:01.689Z,24.01
2023-08-26T11:44:02.126Z,24.12
2023-08-26T11:45:01.659Z,24.23
2023-08-26T11:46:02.154Z,24.32
2023-08-26T11:47:03.180Z,24.4
2023-08-26T11:48:02.088Z,24.43
2023-08-26T11:49:01.456Z,24.48
2023-08-26T11:50:01.887Z,24.51
2023-08-26T11:51:01.357Z,24.58
2023-08-26T11:52:03.495Z,24.69
2023-08-26T11:53:03.035Z,24.72
2023-08-26T11:54:01.738Z,24.74
2023-08-26T11:55:02.235Z,24.79
2023-08-26T11:56:01.653Z,24.84
2023-08-26T11:57:03.937Z,24.87
2023-08-26T11:58:01.594Z,24.92
2023-08-26T11:59:02.127Z,24.95
2023-08-26T12:00:01.549Z,25.02
2023-08-26T12:01:02.086Z,25.09
2023-08-26T12:02:01.439Z,25.14
2023-08-26T12:03:01.958Z,25.18
2023-08-26T12:04:01.429Z,25.23
2023-08-26T12:05:01.882Z,25.27
2023-08-26T12:06:01.388Z,25.33
2023-08-26T12:07:01.805Z,25.36
2023-08-26T12:09:03.461Z,25.36
2023-08-26T12:10:02.162Z,25.36
2023-08-26T12:11:01.656Z,25.36
2023-08-26T12:12:03.748Z,25.36
2023-08-26T12:13:01.623Z,25.37
2023-08-26T12:14:03.736Z,25.45
2023-08-26T12:15:01.530Z,25.47
2023-08-26T12:16:01.976Z,25.47
2023-08-26T12:17:04.348Z,25.48
2023-08-26T12:18:02.579Z,25.49
2023-08-26T12:19:02.998Z,25.48
2023-08-26T12:20:01.800Z,25.48
2023-08-26T12:22:01.691Z,25.5
2023-08-26T12:23:02.210Z,25.49
2023-08-26T12:24:01.654Z,25.45
2023-08-26T12:25:03.826Z,25.4
2023-08-26T12:26:01.653Z,25.36
2023-08-26T12:27:02.040Z,25.31
2023-08-26T12:28:01.488Z,25.28
2023-08-26T12:29:03.583Z,25.24
2023-08-26T12:30:01.388Z,25.22
2023-08-26T12:31:01.916Z,25.21
2023-08-26T12:32:02.927Z,25.14
2023-08-26T12:33:01.855Z,25.07
2023-08-26T12:34:02.301Z,24.99
2023-08-26T12:35:01.725Z,24.91
2023-08-26T12:36:02.155Z,24.88
2023-08-26T12:37:03.336Z,24.85
2023-08-26T12:38:02.061Z,24.83
2023-08-26T12:39:03.151Z,24.79
2023-08-26T12:40:02.008Z,24.76
2023-08-26T12:41:03.089Z,24.77
2023-08-26T12:42:01.874Z,24.8
2023-08-26T12:43:03.064Z,24.82
2023-08-26T12:44:01.828Z,24.82
2023-08-26T12:45:02.975Z,24.84
2023-08-26T12:46:03.414Z,24.9
2023-08-26T12:47:02.283Z,24.98
2023-08-26T12:48:01.901Z,25.05
2023-08-26T12:49:03.878Z,25.09
2023-08-26T12:50:03.286Z,25.2
2023-08-26T12:51:02.109Z,25.22
2023-08-26T12:52:01.554Z,25.31
2023-08-26T12:53:02.091Z,25.33
2023-08-26T12:54:01.517Z,25.36
2023-08-26T12:55:01.962Z,25.37
2023-08-26T12:56:01.457Z,25.46
2023-08-26T12:57:01.909Z,25.48
2023-08-26T12:58:03.673Z,25.47
2023-08-26T12:59:01.303Z,25.45
2023-08-26T13:00:03.410Z,25.37
2023-08-26T13:01:03.972Z,25.31